Time;durP1;ratioP1;P1;durP2;ratioP2;P2;SDS_P1;SDS_P2;PMS_P1;PMS_P2;Temp;Humidity;BMP_temperature;BMP_pressure;BME280_temperature;BME280_humidity;BME280_pressure;Samples;Min_cycle;Max_cycle;Signal;HPM_P1;HPM_P2
2021/12/07 00:00:09;;;;;;;89.80;35.55;;;;;;;;;;4998588;28;20033;-80
2021/12/07 00:02:35;;;;;;;90.90;38.50;;;;;;;;;;4999365;28;20504;-80
2021/12/07 00:05:02;;;;;;;90.13;36.88;;;;;;;;;;4981846;28;20050;-80
2021/12/07 00:07:29;;;;;;;84.18;36.55;;;;;;;;;;4998955;28;20018;-81
2021/12/07 00:09:55;;;;;;;79.75;36.25;;;;;;;;;;4999411;28;20446;-80
2021/12/07 00:12:21;;;;;;;83.47;37.38;;;;;;;;;;4999383;28;20062;-80
2021/12/07 00:14:47;;;;;;;79.07;35.25;;;;;;;;;;4998505;28;20022;-81
2021/12/07 00:17:14;;;;;;;81.85;38.90;;;;;;;;;;4999543;28;20022;-80
2021/12/07 00:19:40;;;;;;;88.97;36.03;;;;;;;;;;4999376;28;20023;-81
2021/12/07 00:22:07;;;;;;;81.50;39.10;;;;;;;;;;4998936;28;20030;-80
2021/12/07 00:24:34;;;;;;;82.20;36.53;;;;;;;;;;4997304;28;20072;-81
2021/12/07 00:27:00;;;;;;;79.00;35.47;;;;;;;;;;4999551;28;20030;-80
2021/12/07 00:29:27;;;;;;;79.75;35.72;;;;;;;;;;4998808;28;20045;-80
2021/12/07 00:32:06;;;;;;;87.68;40.15;;;;;;;;;;4998054;28;20061;-80
2021/12/07 00:36:58;;;;;;;82.55;37.85;;;;;;;;;;4998966;28;20085;-80
2021/12/07 00:39:24;;;;;;;91.57;39.85;;;;;;;;;;4997328;28;20105;-80
2021/12/07 00:41:50;;;;;;;83.63;37.35;;;;;;;;;;4998365;28;20030;-80
2021/12/07 00:44:17;;;;;;;82.88;37.65;;;;;;;;;;4998518;28;20026;-81
2021/12/07 00:46:44;;;;;;;79.47;37.03;;;;;;;;;;5035635;23;20046;-80
2021/12/07 00:49:10;;;;;;;77.57;37.03;;;;;;;;;;4997063;28;20041;-81
2021/12/07 00:51:36;;;;;;;88.90;40.40;;;;;;;;;;4998883;28;20026;-80
2021/12/07 00:54:02;;;;;;;88.60;41.33;;;;;;;;;;4998610;28;20029;-80
2021/12/07 00:56:28;;;;;;;95.03;44.50;;;;;;;;;;4997409;28;20045;-80
2021/12/07 00:58:54;;;;;;;97.97;49.25;;;;;;;;;;4998600;28;20018;-80
2021/12/07 01:01:20;;;;;;;114.45;46.15;;;;;;;;;;4996800;28;20409;-80
2021/12/07 01:03:48;;;;;;;111.32;44.00;;;;;;;;;;5013760;23;20038;-80
2021/12/07 01:06:26;;;;;;;93.65;45.47;;;;;;;;;;4999101;28;20019;-81
2021/12/07 01:25:05;;;;;;;95.85;50.00;;;;;;;;;;4998507;28;20015;-81
2021/12/07 01:27:31;;;;;;;109.25;49.50;;;;;;;;;;4998452;28;20029;-81
2021/12/07 01:30:37;;;;;;;98.72;47.70;;;;;;;;;;4997316;28;20022;-81
2021/12/07 01:33:09;;;;;;;105.80;47.72;;;;;;;;;;4996159;28;20049;-81
2021/12/07 01:52:07;;;;;;;104.68;51.25;;;;;;;;;;4999651;28;20110;-81
2021/12/07 01:59:47;;;;;;;100.32;48.03;;;;;;;;;;5000531;28;20014;-81
2021/12/07 02:02:16;;;;;;;105.40;51.35;;;;;;;;;;4999590;28;20381;-81
2021/12/07 02:04:42;;;;;;;104.85;50.50;;;;;;;;;;4998875;28;20565;-81
2021/12/07 02:07:09;;;;;;;102.40;50.97;;;;;;;;;;4998064;28;20376;-81
2021/12/07 02:09:36;;;;;;;109.55;48.72;;;;;;;;;;5001013;28;20096;-81
2021/12/07 02:12:03;;;;;;;107.60;47.88;;;;;;;;;;4998325;28;20092;-81
2021/12/07 02:14:30;;;;;;;93.07;49.42;;;;;;;;;;4997835;28;20037;-81
2021/12/07 02:16:57;;;;;;;99.70;48.55;;;;;;;;;;4999988;28;20030;-81
2021/12/07 02:19:24;;;;;;;91.32;47.92;;;;;;;;;;5000822;28;20022;-81
2021/12/07 02:21:51;;;;;;;88.88;40.78;;;;;;;;;;5000771;28;20042;-81
2021/12/07 02:24:17;;;;;;;92.55;41.08;;;;;;;;;;5001155;28;20417;-80
2021/12/07 02:26:43;;;;;;;96.93;43.42;;;;;;;;;;5000192;28;20069;-81
2021/12/07 02:29:10;;;;;;;96.07;46.90;;;;;;;;;;5000211;28;20026;-81
2021/12/07 02:31:36;;;;;;;96.18;43.58;;;;;;;;;;5000015;28;20026;-81
2021/12/07 02:34:03;;;;;;;97.90;43.80;;;;;;;;;;4999796;28;20041;-81
2021/12/07 02:36:29;;;;;;;93.93;41.85;;;;;;;;;;4999676;28;20077;-81
2021/12/07 02:38:56;;;;;;;136.32;63.85;;;;;;;;;;4981748;28;20360;-81
2021/12/07 02:41:21;;;;;;;176.75;76.38;;;;;;;;;;4998586;28;20317;-81
2021/12/07 02:43:48;;;;;;;163.63;82.88;;;;;;;;;;4999776;28;20075;-81
2021/12/07 02:46:16;;;;;;;190.20;94.57;;;;;;;;;;4998432;28;20018;-81
2021/12/07 02:48:43;;;;;;;184.95;85.05;;;;;;;;;;5003180;23;20444;-80
2021/12/07 02:51:09;;;;;;;180.57;86.72;;;;;;;;;;4995551;28;20014;-81
2021/12/07 02:53:37;;;;;;;157.98;77.65;;;;;;;;;;5026215;23;20121;-81
2021/12/07 02:56:05;;;;;;;160.50;78.30;;;;;;;;;;4998287;28;20384;-80
2021/12/07 02:58:31;;;;;;;145.25;79.10;;;;;;;;;;5049031;23;20039;-80
2021/12/07 03:01:03;;;;;;;234.80;112.95;;;;;;;;;;4998804;28;20022;-81
2021/12/07 03:03:33;;;;;;;232.07;117.30;;;;;;;;;;5053240;23;20073;-82
2021/12/07 03:27:22;;;;;;;173.85;87.70;;;;;;;;;;5000069;28;20018;-80
2021/12/07 03:29:48;;;;;;;165.00;81.80;;;;;;;;;;4983467;28;20018;-81
2021/12/07 03:32:15;;;;;;;178.18;88.18;;;;;;;;;;5004548;23;20058;-81
2021/12/07 03:34:41;;;;;;;171.25;87.90;;;;;;;;;;5000786;28;20023;-81
2021/12/07 03:37:10;;;;;;;166.70;87.05;;;;;;;;;;5026165;23;20050;-81
2021/12/07 03:39:37;;;;;;;184.52;88.22;;;;;;;;;;5021343;23;20022;-81
2021/12/07 03:42:04;;;;;;;167.75;83.68;;;;;;;;;;4998281;28;20065;-80
2021/12/07 03:44:30;;;;;;;167.55;82.65;;;;;;;;;;5064288;23;20081;-81
2021/12/07 03:46:56;;;;;;;173.50;86.50;;;;;;;;;;4998925;28;20018;-81
2021/12/07 03:49:22;;;;;;;166.32;80.95;;;;;;;;;;4998200;28;20166;-80
2021/12/07 03:51:48;;;;;;;178.65;87.82;;;;;;;;;;5066551;23;20057;-80
2021/12/07 03:54:22;;;;;;;190.95;87.72;;;;;;;;;;5074517;23;20136;-79
2021/12/07 03:57:10;;;;;;;178.82;90.15;;;;;;;;;;5045391;23;20061;-80
2021/12/07 03:59:36;;;;;;;169.70;89.05;;;;;;;;;;5005998;23;20050;-81
2021/12/07 04:02:03;;;;;;;212.48;92.82;;;;;;;;;;5046560;23;20136;-81
2021/12/07 04:04:31;;;;;;;203.77;89.97;;;;;;;;;;4994368;28;20085;-81
2021/12/07 04:06:57;;;;;;;188.15;90.88;;;;;;;;;;5133275;23;20061;-80
2021/12/07 04:09:23;;;;;;;177.73;91.22;;;;;;;;;;5036798;23;20084;-80
2021/12/07 04:11:50;;;;;;;188.50;91.57;;;;;;;;;;4996813;28;20417;-80
2021/12/07 04:14:16;;;;;;;199.35;91.00;;;;;;;;;;4995497;28;20112;-80
2021/12/07 04:16:42;;;;;;;207.88;98.05;;;;;;;;;;4998431;28;20010;-80
2021/12/07 04:19:09;;;;;;;197.60;90.50;;;;;;;;;;5031031;23;20086;-80
2021/12/07 04:21:37;;;;;;;202.18;89.18;;;;;;;;;;4997882;28;20030;-80
2021/12/07 04:24:05;;;;;;;192.18;89.22;;;;;;;;;;5003020;23;20416;-80
2021/12/07 04:26:34;;;;;;;175.52;85.00;;;;;;;;;;4979199;28;20121;-81
2021/12/07 04:29:00;;;;;;;189.57;88.00;;;;;;;;;;4991424;28;20196;-81
2021/12/07 04:31:28;;;;;;;194.73;89.32;;;;;;;;;;5000216;23;20029;-80
2021/12/07 04:33:56;;;;;;;199.77;89.70;;;;;;;;;;4991278;28;20530;-80
2021/12/07 04:36:23;;;;;;;223.93;108.13;;;;;;;;;;5024986;23;20077;-80
2021/12/07 04:38:49;;;;;;;201.35;88.85;;;;;;;;;;4999624;23;20046;-81
2021/12/07 04:41:21;;;;;;;197.57;96.90;;;;;;;;;;4994649;28;20026;-80
2021/12/07 04:43:49;;;;;;;177.43;85.00;;;;;;;;;;4993309;28;20383;-80
2021/12/07 04:46:23;;;;;;;173.63;78.15;;;;;;;;;;5016620;23;20073;-80
2021/12/07 05:02:06;;;;;;;137.07;62.03;;;;;;;;;;4975744;28;20078;-81
2021/12/07 05:04:35;;;;;;;137.88;59.90;;;;;;;;;;4977081;28;20424;-80
2021/12/07 05:07:23;;;;;;;142.35;64.90;;;;;;;;;;4975385;28;20033;-80
2021/12/07 05:15:23;;;;;;;129.88;59.17;;;;;;;;;;4999998;28;20045;-79
2021/12/07 05:39:44;;;;;;;169.82;72.65;;;;;;;;;;5001451;28;20077;-81
2021/12/07 05:42:15;;;;;;;180.35;80.10;;;;;;;;;;4981610;28;20132;-81
2021/12/07 05:44:41;;;;;;;163.13;78.65;;;;;;;;;;4999796;28;20029;-80
2021/12/07 05:47:08;;;;;;;175.23;79.05;;;;;;;;;;5000334;28;20032;-80
2021/12/07 05:49:36;;;;;;;167.45;76.80;;;;;;;;;;5000803;28;20026;-81
2021/12/07 05:52:03;;;;;;;182.65;82.97;;;;;;;;;;4998114;28;20072;-81
2021/12/07 05:54:29;;;;;;;176.85;85.70;;;;;;;;;;4998570;28;20108;-80
2021/12/07 05:56:55;;;;;;;165.88;80.80;;;;;;;;;;4980718;28;20023;-81
2021/12/07 05:59:22;;;;;;;173.77;80.88;;;;;;;;;;4981521;28;20368;-81
2021/12/07 06:04:23;;;;;;;169.25;78.68;;;;;;;;;;4635406;23;20050;-80
2021/12/07 06:06:51;;;;;;;176.73;78.75;;;;;;;;;;4981399;28;20014;-78
2021/12/07 06:09:22;;;;;;;168.25;79.32;;;;;;;;;;4981870;28;20156;-80
2021/12/07 06:12:06;;;;;;;143.10;68.70;;;;;;;;;;5048651;23;20063;-80
2021/12/07 06:15:11;;;;;;;149.48;74.88;;;;;;;;;;5058063;23;20506;-80
2021/12/07 06:17:38;;;;;;;155.30;72.55;;;;;;;;;;5027504;23;20449;-81
2021/12/07 06:20:06;;;;;;;152.07;71.68;;;;;;;;;;5000004;28;20025;-81
2021/12/07 06:22:35;;;;;;;161.52;75.90;;;;;;;;;;4998050;28;20034;-80
2021/12/07 06:25:03;;;;;;;157.13;75.45;;;;;;;;;;4996431;28;20026;-78
2021/12/07 06:29:57;;;;;;;143.32;76.13;;;;;;;;;;4976680;28;20126;-81
2021/12/07 06:32:24;;;;;;;166.65;79.32;;;;;;;;;;5009183;23;20141;-81
2021/12/07 06:34:50;;;;;;;171.95;82.35;;;;;;;;;;5000982;28;20033;-80
2021/12/07 06:37:17;;;;;;;159.20;73.93;;;;;;;;;;5050604;23;20054;-79
2021/12/07 06:39:46;;;;;;;163.93;75.40;;;;;;;;;;5044810;23;20140;-80
2021/12/07 06:42:13;;;;;;;169.55;79.35;;;;;;;;;;4997228;28;20282;-80
2021/12/07 06:44:39;;;;;;;164.20;80.90;;;;;;;;;;4988489;23;20110;-80
2021/12/07 06:47:06;;;;;;;155.07;76.15;;;;;;;;;;4961800;28;20141;-80
2021/12/07 06:49:37;;;;;;;172.13;79.35;;;;;;;;;;4959934;29;20074;-81
2021/12/07 06:52:11;;;;;;;154.43;84.25;;;;;;;;;;4960271;28;20074;-80
2021/12/07 06:54:39;;;;;;;180.32;87.60;;;;;;;;;;4941968;29;20027;-80
2021/12/07 06:57:08;;;;;;;186.57;86.30;;;;;;;;;;4987810;23;20367;-82
2021/12/07 06:59:34;;;;;;;168.10;81.95;;;;;;;;;;4997758;28;20302;-80
2021/12/07 07:02:00;;;;;;;176.20;77.90;;;;;;;;;;5012368;23;20380;-80
2021/12/07 07:04:28;;;;;;;191.85;83.20;;;;;;;;;;4999484;28;20321;-80
2021/12/07 07:06:54;;;;;;;168.68;74.30;;;;;;;;;;4997937;28;20026;-80
2021/12/07 07:09:20;;;;;;;185.65;80.47;;;;;;;;;;4980510;28;20516;-80
2021/12/07 07:11:49;;;;;;;187.88;78.72;;;;;;;;;;4997599;28;20034;-80
2021/12/07 07:14:17;;;;;;;166.80;77.60;;;;;;;;;;4997811;28;20076;-80
2021/12/07 07:16:47;;;;;;;162.25;80.25;;;;;;;;;;5000522;28;20072;-80
2021/12/07 07:19:16;;;;;;;157.90;71.95;;;;;;;;;;4980110;28;20014;-80
2021/12/07 07:21:42;;;;;;;176.30;87.07;;;;;;;;;;5014568;23;20014;-79
2021/12/07 07:24:09;;;;;;;193.45;86.68;;;;;;;;;;5003598;23;20042;-80
2021/12/07 07:26:36;;;;;;;198.63;90.40;;;;;;;;;;5051535;23;20047;-80
2021/12/07 07:29:02;;;;;;;188.88;90.07;;;;;;;;;;4997112;28;20096;-80
2021/12/07 07:31:30;;;;;;;187.23;81.38;;;;;;;;;;5002782;23;20053;-80
2021/12/07 07:33:57;;;;;;;185.80;85.55;;;;;;;;;;5024890;23;20058;-81
2021/12/07 07:36:23;;;;;;;164.50;77.10;;;;;;;;;;4996389;28;20054;-81
2021/12/07 07:38:51;;;;;;;166.75;78.25;;;;;;;;;;4995549;28;20025;-80
2021/12/07 07:41:20;;;;;;;172.23;80.22;;;;;;;;;;5006616;28;20420;-79
2021/12/07 07:43:49;;;;;;;;;;;;;;;;;;4980867;28;20042;-81
2021/12/07 07:46:18;;;;;;;196.77;93.40;;;;;;;;;;4979092;28;19910;-80
2021/12/07 07:48:49;;;;;;;173.35;79.97;;;;;;;;;;4993904;28;20034;-80
2021/12/07 07:51:18;;;;;;;185.90;76.88;;;;;;;;;;4993281;28;20412;-80
2021/12/07 07:53:45;;;;;;;177.40;74.43;;;;;;;;;;4983296;23;20042;-80
2021/12/07 07:56:11;;;;;;;167.43;82.75;;;;;;;;;;4995626;28;20417;-81
2021/12/07 07:58:37;;;;;;;202.45;91.78;;;;;;;;;;4996156;28;20131;-80
2021/12/07 08:01:04;;;;;;;205.75;101.10;;;;;;;;;;4980609;28;20101;-80
2021/12/07 08:03:31;;;;;;;199.73;96.40;;;;;;;;;;4981521;28;20110;-80
2021/12/07 08:06:00;;;;;;;205.52;94.55;;;;;;;;;;5023049;23;20051;-79
2021/12/07 08:08:27;;;;;;;211.10;93.55;;;;;;;;;;5003753;23;20129;-80
2021/12/07 08:13:19;;;;;;;206.63;100.93;;;;;;;;;;5003133;23;20053;-80
2021/12/07 08:15:48;;;;;;;204.88;97.50;;;;;;;;;;4998310;28;20030;-80
2021/12/07 08:18:15;;;;;;;210.77;103.60;;;;;;;;;;4999042;28;20145;-80
2021/12/07 08:20:42;;;;;;;225.85;97.25;;;;;;;;;;4997931;28;20026;-79
2021/12/07 08:23:09;;;;;;;210.15;101.38;;;;;;;;;;4984345;23;20463;-79
2021/12/07 08:25:41;;;;;;;222.77;107.82;;;;;;;;;;4997515;28;20431;-80
2021/12/07 08:28:14;;;;;;;198.75;94.28;;;;;;;;;;4997392;28;20022;-80
2021/12/07 08:30:44;;;;;;;212.90;99.65;;;;;;;;;;4995943;28;20156;-80
2021/12/07 08:33:11;;;;;;;230.20;104.70;;;;;;;;;;4996948;28;20096;-79
2021/12/07 08:35:37;;;;;;;253.63;112.65;;;;;;;;;;5008518;23;20163;-80
2021/12/07 08:38:07;;;;;;;229.70;110.72;;;;;;;;;;5018872;23;20101;-80
2021/12/07 08:40:34;;;;;;;223.65;105.20;;;;;;;;;;5039883;23;20042;-80
2021/12/07 08:43:01;;;;;;;230.70;104.18;;;;;;;;;;4997248;28;20041;-80
2021/12/07 08:45:30;;;;;;;220.95;107.43;;;;;;;;;;5000620;28;20046;-80
2021/12/07 08:47:58;;;;;;;237.48;108.88;;;;;;;;;;5002917;28;20022;-80
2021/12/07 08:50:26;;;;;;;226.52;106.88;;;;;;;;;;5001090;28;20006;-80
2021/12/07 08:52:53;;;;;;;244.57;118.13;;;;;;;;;;4984437;28;20400;-80
2021/12/07 09:00:52;;;;;;;259.33;126.80;;;;;;;;;;5003820;28;20094;-80
2021/12/07 09:03:20;;;;;;;224.88;111.10;;;;;;;;;;5000179;28;20141;-79
2021/12/07 09:05:48;;;;;;;223.27;115.13;;;;;;;;;;5037105;23;20054;-80
2021/12/07 09:08:15;;;;;;;222.15;109.85;;;;;;;;;;5002151;28;20015;-80
2021/12/07 09:10:41;;;;;;;246.82;113.65;;;;;;;;;;5002923;28;20108;-80
2021/12/07 09:13:08;;;;;;;239.60;113.80;;;;;;;;;;5003500;28;20101;-80
2021/12/07 09:15:35;;;;;;;238.15;112.38;;;;;;;;;;5002195;28;20425;-80
2021/12/07 09:18:04;;;;;;;236.50;110.33;;;;;;;;;;5003107;28;20029;-80
2021/12/07 09:20:33;;;;;;;215.90;105.13;;;;;;;;;;5029984;23;20279;-79
2021/12/07 09:23:01;;;;;;;;;;;;;;;;;;4999665;23;20057;-80
2021/12/07 09:25:27;;;;;;;224.10;105.20;;;;;;;;;;5025867;23;19921;-80
2021/12/07 09:27:55;;;;;;;206.45;99.30;;;;;;;;;;5011032;23;20097;-80
2021/12/07 09:30:23;;;;;;;214.27;99.45;;;;;;;;;;5004694;28;20042;-80
2021/12/07 09:32:51;;;;;;;190.55;104.38;;;;;;;;;;5004801;28;20034;-80
2021/12/07 09:35:20;;;;;;;194.10;99.55;;;;;;;;;;4987033;28;20022;-80
2021/12/07 09:37:47;;;;;;;202.35;107.88;;;;;;;;;;5004656;28;20073;-80
2021/12/07 09:40:14;;;;;;;212.05;107.10;;;;;;;;;;5004878;28;20026;-80
2021/12/07 09:42:49;;;;;;;200.00;102.30;;;;;;;;;;5004250;28;20045;-79
2021/12/07 09:45:16;;;;;;;179.80;95.82;;;;;;;;;;4987077;28;20385;-80
2021/12/07 09:47:43;;;;;;;209.52;100.13;;;;;;;;;;5003405;28;20026;-80
2021/12/07 09:50:10;;;;;;;184.70;94.78;;;;;;;;;;5004040;28;20022;-80
2021/12/07 09:52:36;;;;;;;186.77;92.50;;;;;;;;;;5003936;28;20068;-79
2021/12/07 09:55:03;;;;;;;170.13;89.57;;;;;;;;;;5002881;28;20361;-80
2021/12/07 09:57:29;;;;;;;182.80;91.45;;;;;;;;;;5000481;28;20022;-79
2021/12/07 09:59:58;;;;;;;178.75;94.68;;;;;;;;;;5001916;28;20031;-80
2021/12/07 10:02:27;;;;;;;174.43;89.47;;;;;;;;;;4999627;28;20381;-80
2021/12/07 10:04:56;;;;;;;192.48;97.55;;;;;;;;;;5000160;28;20014;-79
2021/12/07 10:07:25;;;;;;;187.25;96.28;;;;;;;;;;5001044;28;20032;-79
2021/12/07 10:09:51;;;;;;;197.25;99.18;;;;;;;;;;4999032;28;20340;-79
2021/12/07 10:12:24;;;;;;;192.68;99.18;;;;;;;;;;4984291;28;20030;-80
2021/12/07 10:14:50;;;;;;;213.48;101.43;;;;;;;;;;4999405;28;20022;-79
2021/12/07 10:17:25;;;;;;;200.18;102.25;;;;;;;;;;5001500;28;20037;-80
2021/12/07 10:19:51;;;;;;;220.75;109.47;;;;;;;;;;5005660;23;20101;-80
2021/12/07 10:22:21;;;;;;;220.93;109.07;;;;;;;;;;5022657;23;20388;-79
2021/12/07 10:24:49;;;;;;;207.98;107.47;;;;;;;;;;5001184;28;20022;-80
2021/12/07 10:27:34;;;;;;;198.80;104.88;;;;;;;;;;4998645;28;20024;-79
2021/12/07 10:30:02;;;;;;;219.70;105.85;;;;;;;;;;5000279;28;20333;-80
2021/12/07 10:32:28;;;;;;;225.48;110.35;;;;;;;;;;5000142;28;20022;-80
2021/12/07 10:34:54;;;;;;;218.48;105.07;;;;;;;;;;5000684;28;20073;-80
2021/12/07 10:37:20;;;;;;;234.82;123.43;;;;;;;;;;4999202;28;20092;-80
2021/12/07 10:39:49;;;;;;;260.98;137.38;;;;;;;;;;4999075;28;20029;-80
2021/12/07 10:42:23;;;;;;;263.50;129.15;;;;;;;;;;5005021;23;20042;-79
2021/12/07 10:44:55;;;;;;;238.93;127.32;;;;;;;;;;5000768;28;20045;-80
2021/12/07 10:47:22;;;;;;;264.52;138.73;;;;;;;;;;5000518;28;20029;-80
2021/12/07 10:49:58;;;;;;;270.05;141.73;;;;;;;;;;5001827;28;20038;-79
2021/12/07 10:52:29;;;;;;;297.15;163.95;;;;;;;;;;4998710;28;20046;-80
2021/12/07 10:54:55;;;;;;;;;;;;;;;;;;4999602;28;20499;-79
2021/12/07 10:57:30;;;;;;;276.35;149.35;;;;;;;;;;4999047;28;20297;-79
2021/12/07 11:00:03;;;;;;;301.02;160.52;;;;;;;;;;4998839;28;20416;-79
2021/12/07 11:02:33;;;;;;;298.70;158.00;;;;;;;;;;4998641;28;20030;-80
2021/12/07 11:05:00;;;;;;;284.63;155.10;;;;;;;;;;5000352;28;20018;-79
2021/12/07 11:07:27;;;;;;;299.83;154.80;;;;;;;;;;4999100;28;20021;-79
2021/12/07 11:12:30;;;;;;;274.70;146.95;;;;;;;;;;4999618;28;20417;-79
2021/12/07 11:14:59;;;;;;;238.75;131.38;;;;;;;;;;5000547;28;20077;-79
2021/12/07 11:17:30;;;;;;;245.38;135.70;;;;;;;;;;4999872;28;20129;-80
2021/12/07 11:19:57;;;;;;;244.90;136.55;;;;;;;;;;5000050;28;20440;-80
2021/12/07 11:22:24;;;;;;;249.73;137.27;;;;;;;;;;4999506;28;20038;-80
2021/12/07 11:24:52;;;;;;;250.10;139.00;;;;;;;;;;4999802;28;20014;-80
2021/12/07 11:30:09;;;;;;;265.05;142.32;;;;;;;;;;4999706;28;20026;-80
2021/12/07 11:32:35;;;;;;;270.90;137.73;;;;;;;;;;4998288;28;20045;-80
2021/12/07 11:35:21;;;;;;;248.20;134.45;;;;;;;;;;4997868;28;20022;-79
2021/12/07 11:37:48;;;;;;;234.20;129.35;;;;;;;;;;4999735;28;20038;-80
2021/12/07 11:40:18;;;;;;;253.43;136.38;;;;;;;;;;4999250;28;20034;-79
2021/12/07 11:42:45;;;;;;;251.50;140.23;;;;;;;;;;5000118;28;20441;-80
2021/12/07 11:45:15;;;;;;;;;;;;;;;;;;4983095;28;20344;-80
2021/12/07 11:47:49;;;;;;;228.05;121.93;;;;;;;;;;4998366;28;20000;-80
2021/12/07 11:50:15;;;;;;;233.95;128.45;;;;;;;;;;4981960;28;20125;-79
2021/12/07 11:52:42;;;;;;;219.07;121.03;;;;;;;;;;4998281;28;20062;-80
2021/12/07 11:55:09;;;;;;;218.65;114.78;;;;;;;;;;4999973;28;20022;-79
2021/12/07 11:57:36;;;;;;;224.20;114.38;;;;;;;;;;4998174;28;20506;-79
2021/12/07 12:00:04;;;;;;;197.13;110.10;;;;;;;;;;4999351;28;20377;-80
2021/12/07 12:02:30;;;;;;;202.10;112.95;;;;;;;;;;4999075;28;20437;-79
2021/12/07 12:04:56;;;;;;;227.18;119.38;;;;;;;;;;4998950;28;20025;-79
2021/12/07 12:07:22;;;;;;;210.90;117.50;;;;;;;;;;4999183;28;20026;-79
2021/12/07 12:09:51;;;;;;;220.75;126.00;;;;;;;;;;4999244;28;20022;-79
2021/12/07 12:12:32;;;;;;;238.55;122.57;;;;;;;;;;5334479;23;20050;-80
2021/12/07 12:15:02;;;;;;;217.52;117.28;;;;;;;;;;4998856;28;20022;-80
2021/12/07 12:17:47;;;;;;;231.18;127.20;;;;;;;;;;4998218;28;20080;-80
2021/12/07 12:20:26;;;;;;;234.35;126.40;;;;;;;;;;4997889;28;20473;-80
2021/12/07 12:22:57;;;;;;;225.05;122.95;;;;;;;;;;5081594;23;20140;-80
2021/12/07 12:25:25;;;;;;;235.65;126.82;;;;;;;;;;4998978;28;20049;-80
2021/12/07 12:27:53;;;;;;;241.98;126.32;;;;;;;;;;5244362;23;20046;-80
2021/12/07 12:30:22;;;;;;;253.95;123.32;;;;;;;;;;4998734;28;20022;-80
2021/12/07 12:32:54;;;;;;;285.33;152.75;;;;;;;;;;4998266;28;20025;-80
2021/12/07 12:35:46;;;;;;;288.35;161.95;;;;;;;;;;4996270;28;20021;-80
2021/12/07 12:38:17;;;;;;;281.50;160.00;;;;;;;;;;4996661;28;20034;-80
2021/12/07 12:40:52;;;;;;;288.98;159.45;;;;;;;;;;4999373;28;20030;-80
2021/12/07 12:43:31;;;;;;;292.20;155.20;;;;;;;;;;4997589;28;20037;-80
2021/12/07 12:46:00;;;;;;;306.20;169.82;;;;;;;;;;4999400;28;20018;-80
2021/12/07 12:48:27;;;;;;;297.77;173.27;;;;;;;;;;4997704;28;20029;-80
2021/12/07 12:50:54;;;;;;;295.17;167.65;;;;;;;;;;4996979;28;20084;-80
2021/12/07 12:53:38;;;;;;;278.42;158.00;;;;;;;;;;4997559;28;20357;-80
2021/12/07 12:56:07;;;;;;;277.90;153.68;;;;;;;;;;4997758;28;20427;-80
2021/12/07 12:58:38;;;;;;;264.73;149.75;;;;;;;;;;4998616;28;20033;-80
2021/12/07 13:01:10;;;;;;;278.67;160.90;;;;;;;;;;4997851;28;20113;-80
2021/12/07 13:03:44;;;;;;;307.88;175.60;;;;;;;;;;4996542;23;20034;-81
2021/12/07 13:06:16;;;;;;;309.52;166.68;;;;;;;;;;5007983;23;20054;-80
2021/12/07 13:09:00;;;;;;;331.35;177.05;;;;;;;;;;5038953;23;20097;-80
2021/12/07 13:11:32;;;;;;;331.90;179.40;;;;;;;;;;4998335;28;20031;-80
2021/12/07 13:13:58;;;;;;;327.55;178.68;;;;;;;;;;4998112;28;20065;-80
2021/12/07 13:16:24;;;;;;;328.95;185.63;;;;;;;;;;5010242;23;20065;-80
2021/12/07 13:18:58;;;;;;;300.73;158.60;;;;;;;;;;4997789;28;20018;-80
2021/12/07 13:21:26;;;;;;;282.83;147.57;;;;;;;;;;4998295;28;20101;-80
2021/12/07 13:24:00;;;;;;;301.02;161.02;;;;;;;;;;4997067;28;20341;-80
2021/12/07 13:26:26;;;;;;;293.98;157.30;;;;;;;;;;4980165;28;20026;-80
2021/12/07 13:29:12;;;;;;;288.00;145.40;;;;;;;;;;4998868;28;20117;-80
2021/12/07 13:31:43;;;;;;;290.52;157.75;;;;;;;;;;4999891;28;20022;-80
2021/12/07 13:34:09;;;;;;;286.90;158.10;;;;;;;;;;4984338;28;20491;-80
2021/12/07 13:36:41;;;;;;;261.25;138.88;;;;;;;;;;5002400;28;20026;-80
2021/12/07 13:39:26;;;;;;;312.15;153.93;;;;;;;;;;5001675;28;20042;-80
2021/12/07 13:42:10;;;;;;;282.85;146.13;;;;;;;;;;5001094;28;20022;-80
2021/12/07 13:44:38;;;;;;;253.90;136.77;;;;;;;;;;5000051;28;20336;-80
2021/12/07 13:47:06;;;;;;;261.15;137.35;;;;;;;;;;5000065;28;20025;-80
2021/12/07 13:49:34;;;;;;;273.95;144.27;;;;;;;;;;5002789;28;20494;-80
2021/12/07 13:52:01;;;;;;;266.38;145.32;;;;;;;;;;5013394;23;20057;-80
2021/12/07 13:54:27;;;;;;;276.30;149.70;;;;;;;;;;4999447;28;20022;-80
2021/12/07 13:56:54;;;;;;;265.27;146.43;;;;;;;;;;5000368;28;20117;-80
2021/12/07 13:59:22;;;;;;;281.02;148.18;;;;;;;;;;4998735;28;20375;-81
2021/12/07 14:01:50;;;;;;;266.23;147.88;;;;;;;;;;4999223;28;20425;-80
2021/12/07 14:04:17;;;;;;;285.73;154.10;;;;;;;;;;4997317;28;20117;-80
2021/12/07 14:06:47;;;;;;;318.02;183.20;;;;;;;;;;4999862;28;20042;-80
2021/12/07 14:09:13;;;;;;;312.23;173.68;;;;;;;;;;4999957;28;20033;-80
2021/12/07 14:11:39;;;;;;;297.80;166.48;;;;;;;;;;4997647;28;20072;-80
2021/12/07 14:14:10;;;;;;;310.00;171.48;;;;;;;;;;5000313;28;20104;-80
2021/12/07 14:16:36;;;;;;;308.95;176.48;;;;;;;;;;4999305;28;20022;-80
2021/12/07 14:19:03;;;;;;;370.25;194.75;;;;;;;;;;4998675;28;20054;-80
2021/12/07 14:21:29;;;;;;;335.88;178.07;;;;;;;;;;4999685;28;20030;-81
2021/12/07 14:24:04;;;;;;;349.55;183.93;;;;;;;;;;5001482;28;20113;-80
2021/12/07 14:26:31;;;;;;;332.80;179.15;;;;;;;;;;5000509;28;20353;-80
2021/12/07 14:29:02;;;;;;;345.60;187.10;;;;;;;;;;4999124;28;20022;-80
2021/12/07 14:31:34;;;;;;;332.58;169.32;;;;;;;;;;5001057;28;20018;-80
2021/12/07 14:34:01;;;;;;;337.08;179.23;;;;;;;;;;5000825;28;20136;-80
2021/12/07 14:36:28;;;;;;;299.63;161.32;;;;;;;;;;5000996;28;20030;-80
2021/12/07 14:38:55;;;;;;;285.75;157.45;;;;;;;;;;5001233;28;20480;-80
2021/12/07 14:41:22;;;;;;;256.85;134.73;;;;;;;;;;5000133;28;20114;-80
2021/12/07 14:46:15;;;;;;;258.88;134.25;;;;;;;;;;5005996;23;20042;-80
2021/12/07 14:48:43;;;;;;;243.05;123.65;;;;;;;;;;4999146;28;20416;-80
2021/12/07 14:51:11;;;;;;;233.95;127.53;;;;;;;;;;4999562;28;20421;-80
2021/12/07 14:53:43;;;;;;;201.35;103.03;;;;;;;;;;4999706;28;20405;-80
2021/12/07 14:56:10;;;;;;;179.82;91.35;;;;;;;;;;5005404;23;20050;-80
2021/12/07 14:58:37;;;;;;;178.65;95.32;;;;;;;;;;5000992;28;20029;-80
2021/12/07 15:01:05;;;;;;;183.98;97.18;;;;;;;;;;5014146;23;20050;-80
2021/12/07 15:03:35;;;;;;;176.43;95.47;;;;;;;;;;5000237;28;20360;-80
2021/12/07 15:06:01;;;;;;;225.40;116.68;;;;;;;;;;5000013;28;20022;-80
2021/12/07 15:08:27;;;;;;;210.10;113.43;;;;;;;;;;5191011;23;20105;-80
2021/12/07 15:10:53;;;;;;;216.50;112.70;;;;;;;;;;5000308;28;20014;-80
2021/12/07 15:13:21;;;;;;;210.82;110.55;;;;;;;;;;4982836;28;20033;-80
2021/12/07 15:15:47;;;;;;;219.95;119.80;;;;;;;;;;5000209;28;20337;-80
2021/12/07 15:18:13;;;;;;;200.38;107.57;;;;;;;;;;5000019;28;20029;-80
2021/12/07 15:20:40;;;;;;;209.50;110.85;;;;;;;;;;4998212;28;20026;-80
2021/12/07 15:23:06;;;;;;;214.05;110.63;;;;;;;;;;5000151;28;20333;-80
2021/12/07 15:25:32;;;;;;;188.73;95.63;;;;;;;;;;4998233;28;20010;-80
2021/12/07 15:27:59;;;;;;;185.25;97.88;;;;;;;;;;5004915;23;20448;-80
2021/12/07 15:30:25;;;;;;;174.18;93.28;;;;;;;;;;4999297;28;20018;-81
2021/12/07 15:32:51;;;;;;;149.77;86.93;;;;;;;;;;5000135;28;20022;-80
2021/12/07 15:35:24;;;;;;;138.32;69.80;;;;;;;;;;5011972;23;20144;-80
2021/12/07 15:37:50;;;;;;;109.13;57.35;;;;;;;;;;4999074;28;20065;-81
2021/12/07 15:40:19;;;;;;;107.35;55.50;;;;;;;;;;4999622;28;20022;-80
2021/12/07 15:42:45;;;;;;;88.38;46.97;;;;;;;;;;5000198;28;20121;-80
2021/12/07 15:45:13;;;;;;;73.93;42.47;;;;;;;;;;4997570;28;20057;-79
2021/12/07 15:47:40;;;;;;;58.10;32.83;;;;;;;;;;4999693;28;20108;-80
2021/12/07 15:50:11;;;;;;;64.95;33.70;;;;;;;;;;5000293;28;20046;-81
2021/12/07 15:52:39;;;;;;;74.75;36.53;;;;;;;;;;4981786;28;20491;-80
2021/12/07 15:55:08;;;;;;;64.95;35.38;;;;;;;;;;4997505;28;20018;-81
2021/12/07 15:57:40;;;;;;;52.58;28.67;;;;;;;;;;4999574;28;20022;-80
2021/12/07 16:00:06;;;;;;;55.60;30.00;;;;;;;;;;4998751;28;20022;-80
2021/12/07 16:02:32;;;;;;;57.60;28.67;;;;;;;;;;4998389;28;20348;-80
2021/12/07 16:05:12;;;;;;;55.38;32.20;;;;;;;;;;4999744;28;20100;-80
2021/12/07 16:07:43;;;;;;;66.82;32.17;;;;;;;;;;4998033;28;20355;-81
2021/12/07 16:10:13;;;;;;;114.35;53.35;;;;;;;;;;4998877;28;20022;-80
2021/12/07 16:12:39;;;;;;;;;;;;;;;;;;4999834;28;20384;-80
2021/12/07 16:15:16;;;;;;;234.77;117.85;;;;;;;;;;4999642;28;19906;-80